sensor_id;sensor_type;location;lat;lon;timestamp;pressure;altitude;pressure_sealevel;temperature;humidity
55217;BME280;41086;46.736;15.666;2023-02-15T00:01:47;100119.91;;;-1.45;100.00
55217;BME280;41086;46.736;15.666;2023-02-15T00:04:17;100117.31;;;-1.42;100.00
55217;BME280;41086;46.736;15.666;2023-02-15T00:06:44;100118.22;;;-1.38;100.00
55217;BME280;41086;46.736;15.666;2023-02-15T00:09:11;100098.19;;;-1.47;100.00
55217;BME280;41086;46.736;15.666;2023-02-15T00:11:38;100111.28;;;-1.35;100.00
55217;BME280;41086;46.736;15.666;2023-02-15T00:14:21;100117.38;;;-1.29;100.00
55217;BME280;41086;46.736;15.666;2023-02-15T00:16:50;100115.69;;;-1.27;100.00
55217;BME280;41086;46.736;15.666;2023-02-15T00:19:19;100125.22;;;-1.26;100.00
55217;BME280;41086;46.736;15.666;2023-02-15T00:21:47;100103.50;;;-1.31;100.00
55217;BME280;41086;46.736;15.666;2023-02-15T00:24:16;100114.81;;;-1.23;100.00
55217;BME280;41086;46.736;15.666;2023-02-15T00:26:44;100108.75;;;-1.21;100.00
55217;BME280;41086;46.736;15.666;2023-02-15T00:29:12;100107.03;;;-1.19;100.00
55217;BME280;41086;46.736;15.666;2023-02-15T00:31:40;100112.25;;;-1.16;100.00
55217;BME280;41086;46.736;15.666;2023-02-15T00:34:12;100098.41;;;-1.13;100.00
55217;BME280;41086;46.736;15.666;2023-02-15T00:36:40;100107.06;;;-1.09;100.00
55217;BME280;41086;46.736;15.666;2023-02-15T00:39:07;100111.41;;;-1.10;100.00
55217;BME280;41086;46.736;15.666;2023-02-15T00:41:35;100104.47;;;-1.11;100.00
55217;BME280;41086;46.736;15.666;2023-02-15T00:44:02;100104.41;;;-1.23;100.00
55217;BME280;41086;46.736;15.666;2023-02-15T00:46:30;100099.16;;;-1.28;100.00
55217;BME280;41086;46.736;15.666;2023-02-15T00:48:57;100103.53;;;-1.27;100.00
55217;BME280;41086;46.736;15.666;2023-02-15T00:51:24;100093.06;;;-1.33;100.00
55217;BME280;41086;46.736;15.666;2023-02-15T00:53:50;100081.81;;;-1.38;100.00
55217;BME280;41086;46.736;15.666;2023-02-15T00:56:17;100081.81;;;-1.38;100.00
55217;BME280;41086;46.736;15.666;2023-02-15T00:58:44;100081.78;;;-1.37;100.00
55217;BME280;41086;46.736;15.666;2023-02-15T01:01:17;100056.63;;;-1.44;100.00
55217;BME280;41086;46.736;15.666;2023-02-15T01:03:44;100050.56;;;-1.41;100.00
55217;BME280;41086;46.736;15.666;2023-02-15T01:06:14;100051.44;;;-1.41;100.00
55217;BME280;41086;46.736;15.666;2023-02-15T01:08:43;100054.88;;;-1.45;100.00
55217;BME280;41086;46.736;15.666;2023-02-15T01:11:14;100053.16;;;-1.41;100.00
55217;BME280;41086;46.736;15.666;2023-02-15T01:13:42;100043.63;;;-1.45;100.00
55217;BME280;41086;46.736;15.666;2023-02-15T01:16:08;100056.59;;;-1.47;100.00
55217;BME280;41086;46.736;15.666;2023-02-15T01:18:35;100041.88;;;-1.48;100.00
55217;BME280;41086;46.736;15.666;2023-02-15T01:21:13;100030.53;;;-1.58;100.00
55217;BME280;41086;46.736;15.666;2023-02-15T01:23:43;100034.88;;;-1.55;100.00
55217;BME280;41086;46.736;15.666;2023-02-15T01:26:12;100032.28;;;-1.57;100.00
55217;BME280;41086;46.736;15.666;2023-02-15T01:28:39;100032.28;;;-1.57;100.00
55217;BME280;41086;46.736;15.666;2023-02-15T01:31:08;100030.53;;;-1.58;100.00
55217;BME280;41086;46.736;15.666;2023-02-15T01:33:36;99963.66;;;-1.95;100.00
55217;BME280;41086;46.736;15.666;2023-02-15T01:36:04;100019.28;;;-1.58;100.00
55217;BME280;41086;46.736;15.666;2023-02-15T01:38:31;100014.91;;;-1.67;100.00
55217;BME280;41086;46.736;15.666;2023-02-15T01:40:59;100027.94;;;-1.62;100.00
55217;BME280;41086;46.736;15.666;2023-02-15T01:43:47;100014.00;;;-1.72;100.00
55217;BME280;41086;46.736;15.666;2023-02-15T01:46:16;100027.09;;;-1.55;100.00
55217;BME280;41086;46.736;15.666;2023-02-15T01:48:50;100027.09;;;-1.57;100.00
55217;BME280;41086;46.736;15.666;2023-02-15T01:51:22;100016.69;;;-1.55;100.00
55217;BME280;41086;46.736;15.666;2023-02-15T01:53:54;100018.44;;;-1.54;100.00
55217;BME280;41086;46.736;15.666;2023-02-15T01:56:27;99998.47;;;-1.63;100.00
55217;BME280;41086;46.736;15.666;2023-02-15T01:58:57;100019.31;;;-1.52;100.00
55217;BME280;41086;46.736;15.666;2023-02-15T02:01:25;100001.06;;;-1.63;100.00
55217;BME280;41086;46.736;15.666;2023-02-15T02:04:02;100009.78;;;-1.50;100.00
55217;BME280;41086;46.736;15.666;2023-02-15T02:06:32;100014.13;;;-1.50;100.00
55217;BME280;41086;46.736;15.666;2023-02-15T02:09:00;99997.59;;;-1.65;100.00
55217;BME280;41086;46.736;15.666;2023-02-15T02:11:28;100014.97;;;-1.56;100.00
55217;BME280;41086;46.736;15.666;2023-02-15T02:13:55;100010.59;;;-1.59;100.00
55217;BME280;41086;46.736;15.666;2023-02-15T02:33:27;100002.75;;;-1.72;100.00
55217;BME280;41086;46.736;15.666;2023-02-15T02:36:06;99992.34;;;-1.69;100.00
55217;BME280;41086;46.736;15.666;2023-02-15T02:44:03;99994.09;;;-1.73;100.00
55217;BME280;41086;46.736;15.666;2023-02-15T02:46:39;99993.22;;;-1.69;100.00
55217;BME280;41086;46.736;15.666;2023-02-15T02:49:11;99988.94;;;-1.62;100.00
55217;BME280;41086;46.736;15.666;2023-02-15T02:51:37;99988.94;;;-1.59;100.00
55217;BME280;41086;46.736;15.666;2023-02-15T02:54:04;99994.16;;;-1.53;100.00
55217;BME280;41086;46.736;15.666;2023-02-15T02:56:34;99993.31;;;-1.47;100.00
55217;BME280;41086;46.736;15.666;2023-02-15T03:01:37;99989.00;;;-1.42;100.00
55217;BME280;41086;46.736;15.666;2023-02-15T03:04:08;99989.03;;;-1.36;100.00
55217;BME280;41086;46.736;15.666;2023-02-15T03:06:40;99988.19;;;-1.35;100.00
55217;BME280;41086;46.736;15.666;2023-02-15T03:09:12;99982.97;;;-1.37;100.00
55217;BME280;41086;46.736;15.666;2023-02-15T03:11:43;99974.31;;;-1.34;100.00
55217;BME280;41086;46.736;15.666;2023-02-15T03:14:11;99977.78;;;-1.29;100.00
55217;BME280;41086;46.736;15.666;2023-02-15T03:16:39;99979.53;;;-1.23;100.00
55217;BME280;41086;46.736;15.666;2023-02-15T03:19:15;99989.09;;;-1.21;100.00
55217;BME280;41086;46.736;15.666;2023-02-15T03:27:04;99982.13;;;-1.23;100.00
55217;BME280;41086;46.736;15.666;2023-02-15T03:29:33;99973.47;;;-1.22;100.00
55217;BME280;41086;46.736;15.666;2023-02-15T03:32:02;99983.03;;;-1.18;100.00
55217;BME280;41086;46.736;15.666;2023-02-15T03:34:29;99984.75;;;-1.14;100.00
55217;BME280;41086;46.736;15.666;2023-02-15T03:36:58;99982.19;;;-1.09;100.00
55217;BME280;41086;46.736;15.666;2023-02-15T03:39:30;99969.16;;;-1.09;100.00
55217;BME280;41086;46.736;15.666;2023-02-15T03:44:56;99981.28;;;-1.12;100.00
55217;BME280;41086;46.736;15.666;2023-02-15T03:47:26;99975.25;;;-1.14;100.00
55217;BME280;41086;46.736;15.666;2023-02-15T03:50:00;99975.22;;;-1.15;100.00
55217;BME280;41086;46.736;15.666;2023-02-15T03:52:28;99981.31;;;-1.19;100.00
55217;BME280;41086;46.736;15.666;2023-02-15T03:54:55;99976.97;;;-1.19;100.00
55217;BME280;41086;46.736;15.666;2023-02-15T03:57:23;99976.97;;;-1.16;100.00
55217;BME280;41086;46.736;15.666;2023-02-15T04:05:36;99977.00;;;-1.11;100.00
55217;BME280;41086;46.736;15.666;2023-02-15T04:08:03;99976.97;;;-1.09;100.00
55217;BME280;41086;46.736;15.666;2023-02-15T04:10:30;99976.97;;;-1.09;100.00
55217;BME280;41086;46.736;15.666;2023-02-15T04:13:15;99983.91;;;-1.12;100.00
55217;BME280;41086;46.736;15.666;2023-02-15T04:15:42;99978.72;;;-1.13;100.00
55217;BME280;41086;46.736;15.666;2023-02-15T04:18:27;99975.25;;;-1.10;100.00
55217;BME280;41086;46.736;15.666;2023-02-15T04:21:13;99976.97;;;-1.09;100.00
55217;BME280;41086;46.736;15.666;2023-02-15T04:23:58;99970.91;;;-1.10;100.00
55217;BME280;41086;46.736;15.666;2023-02-15T04:26:43;99976.97;;;-1.09;100.00
55217;BME280;41086;46.736;15.666;2023-02-15T04:29:10;99972.66;;;-1.10;100.00
55217;BME280;41086;46.736;15.666;2023-02-15T04:31:36;99975.22;;;-1.12;100.00
55217;BME280;41086;46.736;15.666;2023-02-15T04:34:04;99972.63;;;-1.14;100.00
55217;BME280;41086;46.736;15.666;2023-02-15T04:36:31;99966.56;;;-1.16;100.00
55217;BME280;41086;46.736;15.666;2023-02-15T04:38:57;99965.69;;;-1.13;100.00
55217;BME280;41086;46.736;15.666;2023-02-15T04:41:24;99958.75;;;-1.13;100.00
55217;BME280;41086;46.736;15.666;2023-02-15T04:43:50;99958.75;;;-1.09;100.00
55217;BME280;41086;46.736;15.666;2023-02-15T04:46:17;99965.72;;;-1.05;100.00
55217;BME280;41086;46.736;15.666;2023-02-15T04:48:44;99958.78;;;-1.00;100.00
55217;BME280;41086;46.736;15.666;2023-02-15T04:51:10;99955.31;;;-0.96;100.00
55217;BME280;41086;46.736;15.666;2023-02-15T04:53:37;99963.13;;;-0.88;100.00
55217;BME280;41086;46.736;15.666;2023-02-15T04:56:04;99964.88;;;-0.83;100.00
55217;BME280;41086;46.736;15.666;2023-02-15T04:58:30;99963.13;;;-0.79;100.00
55217;BME280;41086;46.736;15.666;2023-02-15T05:00:57;99970.97;;;-0.75;100.00
55217;BME280;41086;46.736;15.666;2023-02-15T05:03:24;99969.22;;;-0.71;100.00
55217;BME280;41086;46.736;15.666;2023-02-15T05:05:51;99958.81;;;-0.70;100.00
55217;BME280;41086;46.736;15.666;2023-02-15T05:08:17;99968.34;;;-0.65;100.00
55217;BME280;41086;46.736;15.666;2023-02-15T05:10:44;99962.28;;;-0.61;100.00
55217;BME280;41086;46.736;15.666;2023-02-15T05:13:10;99955.34;;;-0.58;100.00
55217;BME280;41086;46.736;15.666;2023-02-15T05:15:37;99961.41;;;-0.56;100.00
55217;BME280;41086;46.736;15.666;2023-02-15T05:18:03;99966.63;;;-0.68;100.00
55217;BME280;41086;46.736;15.666;2023-02-15T05:20:32;99968.34;;;-0.69;100.00
55217;BME280;41086;46.736;15.666;2023-02-15T05:22:58;99965.78;;;-0.73;100.00
55217;BME280;41086;46.736;15.666;2023-02-15T05:25:25;99963.13;;;-0.76;100.00
55217;BME280;41086;46.736;15.666;2023-02-15T05:28:10;99962.28;;;-0.75;100.00
55217;BME280;41086;46.736;15.666;2023-02-15T05:30:47;99961.41;;;-0.71;100.00
55217;BME280;41086;46.736;15.666;2023-02-15T05:33:15;99964.91;;;-0.68;100.00
55217;BME280;41086;46.736;15.666;2023-02-15T05:35:41;99968.38;;;-0.70;100.00
55217;BME280;41086;46.736;15.666;2023-02-15T05:38:08;99961.41;;;-0.67;100.00
55217;BME280;41086;46.736;15.666;2023-02-15T05:40:35;99960.56;;;-0.61;100.00
55217;BME280;41086;46.736;15.666;2023-02-15T05:43:02;99964.03;;;-0.56;100.00
55217;BME280;41086;46.736;15.666;2023-02-15T05:45:29;99965.78;;;-0.56;100.00
55217;BME280;41086;46.736;15.666;2023-02-15T05:47:56;99967.47;;;-0.60;100.00
55217;BME280;41086;46.736;15.666;2023-02-15T05:50:24;99963.16;;;-0.62;100.00
55217;BME280;41086;46.736;15.666;2023-02-15T05:52:51;99958.81;;;-0.65;100.00
55217;BME280;41086;46.736;15.666;2023-02-15T05:55:18;99964.00;;;-0.74;100.00
55217;BME280;41086;46.736;15.666;2023-02-15T05:57:45;99964.88;;;-0.72;100.00
55217;BME280;41086;46.736;15.666;2023-02-15T06:00:11;99954.47;;;-0.72;100.00
55217;BME280;41086;46.736;15.666;2023-02-15T06:02:38;99960.56;;;-0.67;100.00
55217;BME280;41086;46.736;15.666;2023-02-15T06:05:05;99963.16;;;-0.59;100.00
55217;BME280;41086;46.736;15.666;2023-02-15T06:07:32;99971.84;;;-0.51;100.00
55217;BME280;41086;46.736;15.666;2023-02-15T06:09:58;99965.78;;;-0.46;100.00
55217;BME280;41086;46.736;15.666;2023-02-15T06:12:25;99978.78;;;-0.41;100.00
55217;BME280;41086;46.736;15.666;2023-02-15T06:14:52;99976.19;;;-0.39;100.00
55217;BME280;41086;46.736;15.666;2023-02-15T06:17:18;99981.38;;;-0.41;100.00
55217;BME280;41086;46.736;15.666;2023-02-15T06:19:45;99980.53;;;-0.32;100.00
55217;BME280;41086;46.736;15.666;2023-02-15T06:22:11;99983.13;;;-0.29;100.00
55217;BME280;41086;46.736;15.666;2023-02-15T06:24:40;99991.78;;;-0.30;100.00
55217;BME280;41086;46.736;15.666;2023-02-15T06:27:09;99991.81;;;-0.27;100.00
55217;BME280;41086;46.736;15.666;2023-02-15T06:29:36;100002.25;;;-0.27;100.00
55217;BME280;41086;46.736;15.666;2023-02-15T06:32:03;99996.13;;;-0.23;100.00
55217;BME280;41086;46.736;15.666;2023-02-15T06:34:29;99993.53;;;-0.18;100.00
55217;BME280;41086;46.736;15.666;2023-02-15T06:36:56;100004.81;;;-0.16;100.00
55217;BME280;41086;46.736;15.666;2023-02-15T06:39:23;100005.69;;;-0.14;100.00
55217;BME280;41086;46.736;15.666;2023-02-15T06:41:50;100005.72;;;-0.19;100.00
55217;BME280;41086;46.736;15.666;2023-02-15T06:44:17;100007.44;;;-0.13;100.00
55217;BME280;41086;46.736;15.666;2023-02-15T06:46:43;100008.31;;;-0.13;100.00
55217;BME280;41086;46.736;15.666;2023-02-15T06:49:11;100012.63;;;-0.12;100.00
55217;BME280;41086;46.736;15.666;2023-02-15T06:51:37;100021.31;;;-0.11;100.00
55217;BME280;41086;46.736;15.666;2023-02-15T06:54:04;100005.69;;;-0.07;100.00
55217;BME280;41086;46.736;15.666;2023-02-15T06:56:30;99996.09;;;0.08;100.00
55217;BME280;41086;46.736;15.666;2023-02-15T06:58:57;99991.72;;;0.24;100.00
55217;BME280;41086;46.736;15.666;2023-02-15T07:01:24;99987.31;;;0.39;100.00
55217;BME280;41086;46.736;15.666;2023-02-15T07:03:50;99985.53;;;0.46;100.00
55217;BME280;41086;46.736;15.666;2023-02-15T07:06:17;99990.75;;;0.54;100.00
55217;BME280;41086;46.736;15.666;2023-02-15T07:08:43;99989.84;;;0.61;100.00
55217;BME280;41086;46.736;15.666;2023-02-15T07:11:10;99991.56;;;0.65;100.00
55217;BME280;41086;46.736;15.666;2023-02-15T07:13:55;99999.34;;;0.73;100.00
55217;BME280;41086;46.736;15.666;2023-02-15T07:16:22;99997.59;;;0.79;100.00
55217;BME280;41086;46.736;15.666;2023-02-15T07:18:48;100000.19;;;0.85;100.00
55217;BME280;41086;46.736;15.666;2023-02-15T07:21:15;100007.13;;;0.83;100.00
55217;BME280;41086;46.736;15.666;2023-02-15T07:23:41;100003.66;;;0.83;100.00
55217;BME280;41086;46.736;15.666;2023-02-15T07:26:09;99989.69;;;0.92;100.00
55217;BME280;41086;46.736;15.666;2023-02-15T07:28:36;100007.06;;;0.97;100.00
55217;BME280;41086;46.736;15.666;2023-02-15T07:31:03;100007.94;;;0.99;100.00
55217;BME280;41086;46.736;15.666;2023-02-15T07:33:30;100009.66;;;1.05;100.00
55217;BME280;41086;46.736;15.666;2023-02-15T07:35:57;100002.69;;;1.07;100.00
55217;BME280;41086;46.736;15.666;2023-02-15T07:38:26;100012.25;;;1.00;100.00
55217;BME280;41086;46.736;15.666;2023-02-15T07:41:03;100009.66;;;1.02;100.00
55217;BME280;41086;46.736;15.666;2023-02-15T07:43:32;100004.41;;;1.09;100.00
55217;BME280;41086;46.736;15.666;2023-02-15T07:46:05;100006.06;;;1.17;100.00
55217;BME280;41086;46.736;15.666;2023-02-15T07:48:31;100004.31;;;1.23;100.00
55217;BME280;41086;46.736;15.666;2023-02-15T07:50:59;100006.03;;;1.29;100.00
55217;BME280;41086;46.736;15.666;2023-02-15T07:53:26;100015.69;;;1.13;100.00
55217;BME280;41086;46.736;15.666;2023-02-15T07:55:52;100013.16;;;1.01;100.00
55217;BME280;41086;46.736;15.666;2023-02-15T07:58:19;100007.94;;;1.01;100.00
55217;BME280;41086;46.736;15.666;2023-02-15T08:00:46;100002.72;;;0.95;100.00
55217;BME280;41086;46.736;15.666;2023-02-15T08:03:25;99992.44;;;0.64;100.00
55217;BME280;41086;46.736;15.666;2023-02-15T08:05:56;99991.59;;;0.60;100.00
55217;BME280;41086;46.736;15.666;2023-02-15T08:08:24;99988.13;;;0.55;100.00
55217;BME280;41086;46.736;15.666;2023-02-15T08:11:07;99982.91;;;0.57;100.00
55217;BME280;41086;46.736;15.666;2023-02-15T08:13:52;99977.66;;;0.61;100.00
55217;BME280;41086;46.736;15.666;2023-02-15T08:16:29;99979.38;;;0.69;100.00
55217;BME280;41086;46.736;15.666;2023-02-15T08:18:56;99981.94;;;0.73;100.00
55217;BME280;41086;46.736;15.666;2023-02-15T08:21:24;99983.66;;;0.83;100.00
55217;BME280;41086;46.736;15.666;2023-02-15T08:23:52;99988.00;;;0.86;100.00
55217;BME280;41086;46.736;15.666;2023-02-15T08:26:18;99995.84;;;0.84;100.00
55217;BME280;41086;46.736;15.666;2023-02-15T08:28:45;99988.88;;;0.83;100.00
55217;BME280;41086;46.736;15.666;2023-02-15T08:31:13;99984.50;;;0.90;100.00
55217;BME280;41086;46.736;15.666;2023-02-15T08:33:41;99994.03;;;0.94;100.00
55217;BME280;41086;46.736;15.666;2023-02-15T08:36:12;99992.28;;;0.95;100.00
55217;BME280;41086;46.736;15.666;2023-02-15T08:38:38;99995.75;;;1.00;100.00
55217;BME280;41086;46.736;15.666;2023-02-15T08:41:09;100006.16;;;1.03;100.00
55217;BME280;41086;46.736;15.666;2023-02-15T08:43:36;100007.91;;;1.04;100.00
55217;BME280;41086;46.736;15.666;2023-02-15T08:46:03;100014.00;;;1.09;100.00
55217;BME280;41086;46.736;15.666;2023-02-15T08:48:29;100019.19;;;1.10;100.00
55217;BME280;41086;46.736;15.666;2023-02-15T08:50:56;100014.81;;;1.11;100.00
55217;BME280;41086;46.736;15.666;2023-02-15T08:53:22;100013.06;;;1.18;100.00
55217;BME280;41086;46.736;15.666;2023-02-15T08:55:56;100006.91;;;1.22;100.00
55217;BME280;41086;46.736;15.666;2023-02-15T08:58:23;100015.59;;;1.28;100.00
55217;BME280;41086;46.736;15.666;2023-02-15T09:00:50;100026.84;;;1.41;100.00
55217;BME280;41086;46.736;15.666;2023-02-15T09:03:17;100012.84;;;1.48;100.00
55217;BME280;41086;46.736;15.666;2023-02-15T09:05:44;100036.31;;;1.58;100.00
55217;BME280;41086;46.736;15.666;2023-02-15T09:08:10;100024.09;;;1.58;100.00
55217;BME280;41086;46.736;15.666;2023-02-15T09:10:37;100024.97;;;1.59;100.00
55217;BME280;41086;46.736;15.666;2023-02-15T09:13:03;100031.03;;;1.62;100.00
55217;BME280;41086;46.736;15.666;2023-02-15T09:15:30;100023.25;;;1.58;100.00
55217;BME280;41086;46.736;15.666;2023-02-15T09:17:56;100026.75;;;1.52;100.00
55217;BME280;41086;46.736;15.666;2023-02-15T09:20:25;100030.28;;;1.46;100.00
55217;BME280;41086;46.736;15.666;2023-02-15T09:22:52;100024.06;;;1.64;100.00
55217;BME280;41086;46.736;15.666;2023-02-15T09:25:23;100044.97;;;1.66;100.00
55217;BME280;41086;46.736;15.666;2023-02-15T09:27:50;100042.25;;;1.75;100.00
55217;BME280;41086;46.736;15.666;2023-02-15T09:30:16;100036.09;;;1.84;100.00
55217;BME280;41086;46.736;15.666;2023-02-15T09:32:43;100034.28;;;1.93;100.00
55217;BME280;41086;46.736;15.666;2023-02-15T09:35:12;100033.31;;;2.00;100.00
55217;BME280;41086;46.736;15.666;2023-02-15T09:37:38;100036.75;;;2.07;100.00
55217;BME280;41086;46.736;15.666;2023-02-15T09:40:05;100041.88;;;2.19;100.00
55217;BME280;41086;46.736;15.666;2023-02-15T09:45:16;100035.56;;;2.40;100.00
55217;BME280;41086;46.736;15.666;2023-02-15T09:55:36;100040.03;;;2.28;100.00
55217;BME280;41086;46.736;15.666;2023-02-15T09:58:12;100046.13;;;2.30;100.00
55217;BME280;41086;46.736;15.666;2023-02-15T10:06:13;100037.22;;;2.48;100.00
55217;BME280;41086;46.736;15.666;2023-02-15T10:19:30;100016.34;;;2.41;100.00
55217;BME280;41086;46.736;15.666;2023-02-15T10:22:06;100013.75;;;2.38;100.00
55217;BME280;41086;46.736;15.666;2023-02-15T10:24:54;100015.75;;;2.18;100.00
55217;BME280;41086;46.736;15.666;2023-02-15T10:27:24;100014.81;;;2.22;100.00
55217;BME280;41086;46.736;15.666;2023-02-15T10:30:11;100007.81;;;2.24;100.00
55217;BME280;41086;46.736;15.666;2023-02-15T10:32:45;100001.69;;;2.27;100.00
55217;BME280;41086;46.736;15.666;2023-02-15T10:35:25;99993.72;;;2.36;100.00
55217;BME280;41086;46.736;15.666;2023-02-15T10:49:01;99992.63;;;2.58;100.00
55217;BME280;41086;46.736;15.666;2023-02-15T10:51:49;99988.94;;;2.73;100.00
55217;BME280;41086;46.736;15.666;2023-02-15T11:04:58;99985.41;;;2.77;100.00
55217;BME280;41086;46.736;15.666;2023-02-15T11:07:28;99973.88;;;2.91;100.00
55217;BME280;41086;46.736;15.666;2023-02-15T11:12:43;99976.97;;;3.17;100.00
55217;BME280;41086;46.736;15.666;2023-02-15T11:15:16;99968.34;;;3.10;100.00
55217;BME280;41086;46.736;15.666;2023-02-15T11:17:47;99959.25;;;3.35;100.00
55217;BME280;41086;46.736;15.666;2023-02-15T11:20:19;99967.03;;;3.39;100.00
55217;BME280;41086;46.736;15.666;2023-02-15T11:22:49;99954.81;;;3.40;100.00
55217;BME280;41086;46.736;15.666;2023-02-15T11:25:28;99960.06;;;3.40;100.00
55217;BME280;41086;46.736;15.666;2023-02-15T11:27:56;99952.03;;;3.49;100.00
55217;BME280;41086;46.736;15.666;2023-02-15T11:30:24;99952.59;;;3.69;100.00
55217;BME280;41086;46.736;15.666;2023-02-15T11:32:53;99953.31;;;3.76;100.00
55217;BME280;41086;46.736;15.666;2023-02-15T11:35:24;99952.16;;;3.94;100.00
55217;BME280;41086;46.736;15.666;2023-02-15T11:42:49;99948.16;;;3.71;100.00
55217;BME280;41086;46.736;15.666;2023-02-15T11:45:28;99944.63;;;3.74;100.00
55217;BME280;41086;46.736;15.666;2023-02-15T11:47:56;99937.44;;;3.34;100.00
55217;BME280;41086;46.736;15.666;2023-02-15T11:50:24;99936.06;;;3.10;100.00
55217;BME280;41086;46.736;15.666;2023-02-15T11:52:52;99932.91;;;2.86;100.00
55217;BME280;41086;46.736;15.666;2023-02-15T11:55:20;99918.00;;;2.90;100.00
55217;BME280;41086;46.736;15.666;2023-02-15T11:57:53;99919.44;;;3.11;100.00
55217;BME280;41086;46.736;15.666;2023-02-15T12:02:57;99913.13;;;3.26;100.00
55217;BME280;41086;46.736;15.666;2023-02-15T12:05:24;99910.75;;;3.62;100.00
55217;BME280;41086;46.736;15.666;2023-02-15T12:07:55;99915.50;;;3.89;100.00
55217;BME280;41086;46.736;15.666;2023-02-15T12:10:24;99919.22;;;4.22;100.00
55217;BME280;41086;46.736;15.666;2023-02-15T12:15:36;99918.31;;;4.25;100.00
55217;BME280;41086;46.736;15.666;2023-02-15T12:18:03;99918.38;;;4.22;100.00
55217;BME280;41086;46.736;15.666;2023-02-15T12:20:32;99915.25;;;4.02;100.00
55217;BME280;41086;46.736;15.666;2023-02-15T12:23:03;99905.66;;;4.02;100.00
55217;BME280;41086;46.736;15.666;2023-02-15T12:27:57;99899.72;;;3.91;100.00
55217;BME280;41086;46.736;15.666;2023-02-15T12:30:29;99903.31;;;3.85;100.00
55217;BME280;41086;46.736;15.666;2023-02-15T12:32:58;99903.53;;;4.21;100.00
55217;BME280;41086;46.736;15.666;2023-02-15T12:35:30;99899.41;;;4.51;100.00
55217;BME280;41086;46.736;15.666;2023-02-15T12:38:00;99890.91;;;4.38;100.00
55217;BME280;41086;46.736;15.666;2023-02-15T12:40:29;99891.31;;;4.60;100.00
55217;BME280;41086;46.736;15.666;2023-02-15T12:42:57;99892.06;;;5.04;100.00
55217;BME280;41086;46.736;15.666;2023-02-15T12:45:28;99885.38;;;5.63;100.00
55217;BME280;41086;46.736;15.666;2023-02-15T12:50:47;99885.75;;;6.14;100.00
55217;BME280;41086;46.736;15.666;2023-02-15T12:56:00;99886.19;;;5.99;100.00
55217;BME280;41086;46.736;15.666;2023-02-15T12:58:28;99874.78;;;5.98;100.00
55217;BME280;41086;46.736;15.666;2023-02-15T13:03:35;99870.75;;;5.51;100.00
55217;BME280;41086;46.736;15.666;2023-02-15T13:06:04;99870.84;;;5.48;100.00
55217;BME280;41086;46.736;15.666;2023-02-15T13:08:34;99867.16;;;5.55;100.00
55217;BME280;41086;46.736;15.666;2023-02-15T13:11:09;99865.44;;;6.19;100.00
55217;BME280;41086;46.736;15.666;2023-02-15T13:13:58;99866.00;;;6.31;100.00
55217;BME280;41086;46.736;15.666;2023-02-15T13:16:33;99856.28;;;6.02;100.00
55217;BME280;41086;46.736;15.666;2023-02-15T13:19:10;99852.06;;;5.96;100.00
55217;BME280;41086;46.736;15.666;2023-02-15T13:21:39;99852.06;;;6.57;100.00
55217;BME280;41086;46.736;15.666;2023-02-15T13:24:14;99836.25;;;6.85;100.00
55217;BME280;41086;46.736;15.666;2023-02-15T13:26:42;99839.50;;;6.93;100.00
55217;BME280;41086;46.736;15.666;2023-02-15T13:29:23;99832.59;;;7.42;100.00
55217;BME280;41086;46.736;15.666;2023-02-15T13:31:52;99823.28;;;7.57;100.00
55217;BME280;41086;46.736;15.666;2023-02-15T13:34:21;99826.88;;;8.05;100.00
55217;BME280;41086;46.736;15.666;2023-02-15T13:39:18;99822.69;;;8.68;100.00
55217;BME280;41086;46.736;15.666;2023-02-15T13:49:46;99820.91;;;8.23;100.00
55217;BME280;41086;46.736;15.666;2023-02-15T13:52:23;99825.56;;;8.85;99.09
55217;BME280;41086;46.736;15.666;2023-02-15T14:18:30;99803.47;;;7.45;100.00
55217;BME280;41086;46.736;15.666;2023-02-15T14:21:10;99811.50;;;7.67;100.00
55217;BME280;41086;46.736;15.666;2023-02-15T14:26:10;99811.41;;;7.19;100.00
55217;BME280;41086;46.736;15.666;2023-02-15T14:28:51;99799.72;;;7.27;100.00
55217;BME280;41086;46.736;15.666;2023-02-15T14:31:26;99799.03;;;7.21;100.00
55217;BME280;41086;46.736;15.666;2023-02-15T14:33:55;99796.25;;;7.25;100.00
55217;BME280;41086;46.736;15.666;2023-02-15T14:36:22;99795.28;;;7.28;100.00
55217;BME280;41086;46.736;15.666;2023-02-15T14:39:11;99791.31;;;7.66;100.00
55217;BME280;41086;46.736;15.666;2023-02-15T14:42:04;99788.16;;;7.80;100.00
55217;BME280;41086;46.736;15.666;2023-02-15T14:44:38;99782.22;;;7.25;100.00
55217;BME280;41086;46.736;15.666;2023-02-15T14:47:13;99771.97;;;7.41;100.00
55217;BME280;41086;46.736;15.666;2023-02-15T14:49:43;99779.84;;;7.17;100.00
55217;BME280;41086;46.736;15.666;2023-02-15T14:52:10;99782.22;;;7.25;100.00
55217;BME280;41086;46.736;15.666;2023-02-15T15:02:43;99786.91;;;7.42;100.00
55217;BME280;41086;46.736;15.666;2023-02-15T15:05:19;99783.03;;;7.00;100.00
55217;BME280;41086;46.736;15.666;2023-02-15T15:07:48;99781.56;;;6.92;100.00
55217;BME280;41086;46.736;15.666;2023-02-15T15:12:43;99779.09;;;6.59;100.00
55217;BME280;41086;46.736;15.666;2023-02-15T15:18:07;99778.56;;;6.19;100.00
55217;BME280;41086;46.736;15.666;2023-02-15T15:30:56;99764.13;;;5.72;100.00
55217;BME280;41086;46.736;15.666;2023-02-15T15:33:36;99765.88;;;5.73;100.00
55217;BME280;41086;46.736;15.666;2023-02-15T15:49:11;99744.16;;;5.33;100.00
55217;BME280;41086;46.736;15.666;2023-02-15T15:51:39;99748.94;;;5.19;100.00
55217;BME280;41086;46.736;15.666;2023-02-15T15:54:11;99744.56;;;5.18;100.00
55217;BME280;41086;46.736;15.666;2023-02-15T15:56:40;99746.03;;;4.96;100.00
55217;BME280;41086;46.736;15.666;2023-02-15T15:59:12;99747.47;;;4.73;100.00